Violet, Texas
Current Conditions -  °F | °C
As of 6:50 PM on Saturday 25 Oct 2014 (Local Time) from KRBO Reporting Station
Heavy Rain Heavy Rain  
Wind Chill: 79°   Ceiling: Unl
Heat Index: 81°   Visibility: 7mi
Dew Point: 64°   Wind: 10mph
Humidity: 60%   Direction: 120°ESE
Pressure: 30.09"   Gusts: NA
Location:  27.7757°N, 97.7554°W
Report Text: KRBO 252350Z AUTO 12009KT 7SM +RA CLR 26/18 A3009 RMK AO2 T02620180 10301 20262
Loading
Personal Weather Stations






























Interactive Weather Map
Tropical Storm Tracking
New forecast layout! Learn more

10-Day Weather Forecast

Advertisements
Track Severe Weather on mobile